Time;durP1;ratioP1;P1;durP2;ratioP2;P2;SDS_P1;SDS_P2;PMS_P1;PMS_P2;Temp;Humidity;BMP_temperature;BMP_pressure;BME280_temperature;BME280_humidity;BME280_pressure;Samples;Min_cycle;Max_cycle;Signal;HPM_P1;HPM_P2
2022/06/25 00:00:04;;;;;;;11.60;10.50;;;;;;;;;;5006514;28;20042;-75
2022/06/25 00:02:30;;;;;;;11.93;10.88;;;;;;;;;;5004578;28;20057;-75
2022/06/25 00:07:40;;;;;;;12.18;11.07;;;;;;;;;;5004157;28;20053;-75
2022/06/25 00:10:07;;;;;;;12.10;11.00;;;;;;;;;;5005506;28;20701;-75
2022/06/25 00:12:33;;;;;;;11.98;10.88;;;;;;;;;;5006333;28;20034;-75
2022/06/25 00:15:00;;;;;;;12.45;11.27;;;;;;;;;;5002724;28;20042;-75
2022/06/25 00:17:26;;;;;;;12.43;11.23;;;;;;;;;;5006291;28;20728;-75
2022/06/25 00:19:52;;;;;;;12.73;11.45;;;;;;;;;;5003533;28;20073;-75
2022/06/25 00:22:18;;;;;;;12.45;11.25;;;;;;;;;;5002037;28;20074;-75
2022/06/25 00:24:44;;;;;;;11.32;10.30;;;;;;;;;;5003735;28;20042;-75
2022/06/25 00:27:10;;;;;;;12.50;11.30;;;;;;;;;;4998996;28;20086;-75
2022/06/25 00:29:36;;;;;;;11.95;10.82;;;;;;;;;;4999218;28;20497;-75
2022/06/25 00:32:04;;;;;;;13.10;11.32;;;;;;;;;;5005142;28;20172;-75
2022/06/25 00:34:30;;;;;;;12.80;11.60;;;;;;;;;;5002155;28;20049;-75
2022/06/25 00:36:56;;;;;;;12.70;11.50;;;;;;;;;;5006021;28;20042;-75
2022/06/25 00:39:22;;;;;;;13.18;11.75;;;;;;;;;;5008267;28;20096;-75
2022/06/25 00:41:49;;;;;;;12.60;11.50;;;;;;;;;;5005773;28;20057;-75
2022/06/25 00:44:16;;;;;;;12.73;11.43;;;;;;;;;;5007371;28;20042;-75
2022/06/25 00:46:45;;;;;;;13.18;11.98;;;;;;;;;;5004680;28;20548;-74
2022/06/25 00:49:11;;;;;;;13.80;12.32;;;;;;;;;;5004870;28;20050;-75
2022/06/25 00:51:38;;;;;;;13.70;12.40;;;;;;;;;;5007172;28;20042;-75
2022/06/25 00:54:05;;;;;;;14.02;12.63;;;;;;;;;;5005780;28;20042;-75
2022/06/25 00:56:38;;;;;;;13.98;12.65;;;;;;;;;;5006252;28;20688;-75
2022/06/25 00:59:04;;;;;;;14.50;13.10;;;;;;;;;;5008599;28;20396;-75
2022/06/25 01:01:33;;;;;;;13.77;12.48;;;;;;;;;;5008556;28;20042;-76
2022/06/25 01:03:59;;;;;;;14.13;12.65;;;;;;;;;;5004697;28;20050;-75
2022/06/25 01:06:25;;;;;;;14.20;12.73;;;;;;;;;;5005447;28;20038;-75
2022/06/25 01:08:51;;;;;;;14.55;13.05;;;;;;;;;;5007207;28;20052;-75
2022/06/25 01:11:21;;;;;;;13.65;12.27;;;;;;;;;;5006881;28;20050;-75
2022/06/25 01:13:47;;;;;;;13.90;12.63;;;;;;;;;;5008523;28;20041;-75
2022/06/25 01:16:13;;;;;;;14.35;12.95;;;;;;;;;;5003455;28;20128;-75
2022/06/25 01:18:39;;;;;;;14.40;13.07;;;;;;;;;;5010512;28;20153;-75
2022/06/25 01:21:05;;;;;;;15.63;14.00;;;;;;;;;;5008151;28;20089;-75
2022/06/25 01:23:31;;;;;;;15.43;13.93;;;;;;;;;;5007430;28;20080;-75
2022/06/25 01:25:57;;;;;;;15.48;13.88;;;;;;;;;;5004809;28;20047;-75
2022/06/25 01:28:23;;;;;;;15.68;14.18;;;;;;;;;;5009432;28;20405;-75
2022/06/25 01:30:49;;;;;;;14.45;12.95;;;;;;;;;;5007702;28;20085;-75
2022/06/25 01:33:15;;;;;;;15.18;13.68;;;;;;;;;;5008572;28;20064;-75
2022/06/25 01:35:41;;;;;;;15.13;13.65;;;;;;;;;;5006113;28;20042;-75
2022/06/25 01:38:07;;;;;;;15.50;14.00;;;;;;;;;;5010558;28;20100;-75
2022/06/25 01:40:33;;;;;;;15.27;13.88;;;;;;;;;;5013092;28;20398;-75
2022/06/25 01:43:00;;;;;;;16.02;14.52;;;;;;;;;;5010651;28;20112;-75
2022/06/25 01:45:27;;;;;;;14.82;13.32;;;;;;;;;;5008063;28;20163;-75
2022/06/25 01:47:54;;;;;;;16.10;14.57;;;;;;;;;;5009226;28;20437;-74
2022/06/25 01:50:20;;;;;;;16.20;14.70;;;;;;;;;;5013193;28;20044;-74
2022/06/25 01:52:46;;;;;;;16.02;14.52;;;;;;;;;;5007191;28;20041;-75
2022/06/25 01:55:13;;;;;;;15.70;14.20;;;;;;;;;;5011847;28;20049;-75
2022/06/25 01:57:39;;;;;;;16.92;15.32;;;;;;;;;;5008050;28;21366;-74
2022/06/25 02:00:06;;;;;;;16.63;14.73;;;;;;;;;;5010853;28;20133;-75
2022/06/25 02:02:32;;;;;;;15.80;14.30;;;;;;;;;;5009319;28;20076;-75
2022/06/25 02:04:58;;;;;;;15.43;14.02;;;;;;;;;;5011667;28;20046;-75
2022/06/25 02:07:24;;;;;;;16.02;14.52;;;;;;;;;;5008998;28;20041;-75
2022/06/25 02:09:50;;;;;;;15.98;14.45;;;;;;;;;;5013271;28;20112;-75
2022/06/25 02:12:16;;;;;;;16.42;14.82;;;;;;;;;;5006325;28;20046;-75
2022/06/25 02:14:42;;;;;;;16.02;14.52;;;;;;;;;;5009271;28;20050;-75
2022/06/25 02:17:08;;;;;;;16.30;14.70;;;;;;;;;;5007024;28;20045;-74
2022/06/25 02:19:34;;;;;;;15.93;14.32;;;;;;;;;;5010051;28;20046;-75
2022/06/25 02:22:00;;;;;;;16.02;14.35;;;;;;;;;;5005881;28;20498;-74
2022/06/25 02:24:27;;;;;;;15.68;14.25;;;;;;;;;;5004035;28;20049;-75
2022/06/25 02:26:53;;;;;;;16.20;14.70;;;;;;;;;;5001751;28;20058;-75
2022/06/25 02:29:19;;;;;;;15.75;14.25;;;;;;;;;;5006602;28;20099;-74
2022/06/25 02:31:45;;;;;;;15.57;14.00;;;;;;;;;;5011608;28;20464;-74
2022/06/25 02:34:13;;;;;;;15.75;14.30;;;;;;;;;;5001573;28;20486;-75
2022/06/25 02:36:39;;;;;;;16.23;14.73;;;;;;;;;;5003263;28;20057;-75
2022/06/25 02:39:05;;;;;;;16.90;14.98;;;;;;;;;;5000548;28;20034;-74
2022/06/25 02:41:31;;;;;;;15.85;14.43;;;;;;;;;;5008598;28;20493;-74
2022/06/25 02:43:57;;;;;;;15.70;14.15;;;;;;;;;;5007995;28;20041;-74
2022/06/25 02:46:24;;;;;;;16.85;15.25;;;;;;;;;;5003523;28;20493;-74
2022/06/25 02:48:50;;;;;;;15.40;14.02;;;;;;;;;;5003635;28;20049;-74
2022/06/25 02:51:16;;;;;;;17.30;15.57;;;;;;;;;;5007464;28;20096;-75
2022/06/25 02:53:42;;;;;;;16.75;15.15;;;;;;;;;;5002863;28;20124;-75
2022/06/25 02:58:56;;;;;;;15.82;14.32;;;;;;;;;;5004737;28;20042;-74
2022/06/25 03:01:29;;;;;;;16.25;14.73;;;;;;;;;;5000314;28;20053;-75
2022/06/25 03:03:55;;;;;;;17.13;15.63;;;;;;;;;;5007382;28;20042;-75
2022/06/25 03:06:21;;;;;;;15.85;14.38;;;;;;;;;;5006216;28;20053;-75
2022/06/25 03:08:48;;;;;;;16.08;14.52;;;;;;;;;;5005951;28;20041;-75
2022/06/25 03:11:14;;;;;;;18.08;16.30;;;;;;;;;;5005124;28;20071;-75
2022/06/25 03:13:40;;;;;;;17.23;15.63;;;;;;;;;;5008385;28;20485;-75
2022/06/25 03:16:07;;;;;;;17.23;15.63;;;;;;;;;;5004632;28;20053;-75
2022/06/25 03:18:37;;;;;;;16.75;15.18;;;;;;;;;;5006666;28;20450;-75
2022/06/25 03:21:03;;;;;;;16.48;14.98;;;;;;;;;;5002233;28;20101;-73
2022/06/25 03:23:32;;;;;;;17.25;15.55;;;;;;;;;;5007904;28;20050;-72
2022/06/25 03:25:58;;;;;;;16.65;15.25;;;;;;;;;;5007848;28;20056;-73
2022/06/25 03:28:24;;;;;;;17.50;16.00;;;;;;;;;;5007755;28;20136;-72
2022/06/25 03:30:51;;;;;;;16.95;15.35;;;;;;;;;;5006887;28;20116;-73
2022/06/25 03:33:17;;;;;;;17.92;16.30;;;;;;;;;;5003326;28;20500;-72
2022/06/25 03:35:43;;;;;;;17.27;15.68;;;;;;;;;;5005730;28;20092;-72
2022/06/25 03:38:09;;;;;;;18.50;16.75;;;;;;;;;;5003924;28;20137;-72
2022/06/25 03:40:35;;;;;;;17.50;16.00;;;;;;;;;;5005102;28;20034;-73
2022/06/25 03:43:01;;;;;;;18.08;16.27;;;;;;;;;;5007066;28;20042;-73
2022/06/25 03:45:27;;;;;;;16.85;15.25;;;;;;;;;;5003394;28;20053;-73
2022/06/25 03:47:54;;;;;;;17.25;15.75;;;;;;;;;;5007744;28;20498;-73
2022/06/25 03:50:20;;;;;;;16.42;14.93;;;;;;;;;;5006581;28;20054;-75
2022/06/25 03:52:49;;;;;;;16.75;15.30;;;;;;;;;;5004137;28;20073;-75
2022/06/25 03:55:16;;;;;;;15.88;14.48;;;;;;;;;;5005992;28;20061;-74
2022/06/25 03:57:42;;;;;;;16.27;14.77;;;;;;;;;;5006595;28;20042;-75
2022/06/25 04:00:09;;;;;;;15.85;14.50;;;;;;;;;;5007527;28;20092;-75
2022/06/25 04:02:35;;;;;;;14.88;13.48;;;;;;;;;;5003349;28;20092;-75
2022/06/25 04:05:01;;;;;;;16.63;15.00;;;;;;;;;;5004442;28;20513;-75
2022/06/25 04:07:27;;;;;;;15.35;13.95;;;;;;;;;;5005569;28;20064;-75
2022/06/25 04:09:54;;;;;;;15.73;14.32;;;;;;;;;;5006394;28;20510;-75
2022/06/25 04:12:20;;;;;;;14.82;13.50;;;;;;;;;;5004310;28;20103;-75
2022/06/25 04:14:46;;;;;;;14.15;12.80;;;;;;;;;;5006668;28;20474;-75
2022/06/25 04:17:12;;;;;;;14.60;13.18;;;;;;;;;;4999402;28;20050;-75
2022/06/25 04:19:41;;;;;;;13.88;12.55;;;;;;;;;;5003671;28;20184;-75
2022/06/25 04:22:08;;;;;;;14.00;12.70;;;;;;;;;;5002646;28;20053;-75
2022/06/25 04:24:35;;;;;;;13.95;12.60;;;;;;;;;;5006261;28;20065;-75
2022/06/25 04:27:01;;;;;;;13.57;12.45;;;;;;;;;;5005973;28;20560;-75
2022/06/25 04:29:30;;;;;;;12.63;11.43;;;;;;;;;;5001839;28;20081;-75
2022/06/25 04:31:56;;;;;;;12.30;11.10;;;;;;;;;;5009998;28;20053;-75
2022/06/25 04:34:22;;;;;;;12.52;11.43;;;;;;;;;;5009775;28;20045;-75
2022/06/25 04:36:48;;;;;;;12.00;10.90;;;;;;;;;;5012073;28;20038;-75
2022/06/25 04:39:15;;;;;;;11.98;10.88;;;;;;;;;;5014823;28;20069;-75
2022/06/25 04:41:41;;;;;;;11.70;10.60;;;;;;;;;;5014049;28;20038;-75
2022/06/25 04:44:07;;;;;;;12.45;11.27;;;;;;;;;;5011417;28;20033;-75
2022/06/25 04:46:33;;;;;;;12.10;11.00;;;;;;;;;;5009133;28;20081;-75
2022/06/25 04:48:59;;;;;;;11.88;10.77;;;;;;;;;;5009976;28;20153;-75
2022/06/25 04:51:26;;;;;;;11.95;10.88;;;;;;;;;;5013423;28;20528;-75
2022/06/25 04:53:55;;;;;;;12.05;11.00;;;;;;;;;;5012794;28;20049;-75
2022/06/25 04:56:28;;;;;;;12.45;11.00;;;;;;;;;;5007477;28;20478;-75
2022/06/25 04:58:54;;;;;;;;;;;;;;;;;;5011165;28;20053;-75
2022/06/25 05:01:20;;;;;;;11.50;10.40;;;;;;;;;;5009168;28;19922;-75
2022/06/25 05:03:46;;;;;;;11.55;10.45;;;;;;;;;;5011802;28;20045;-75
2022/06/25 05:06:13;;;;;;;11.70;10.60;;;;;;;;;;5008148;28;20081;-75
2022/06/25 05:08:42;;;;;;;11.60;10.35;;;;;;;;;;5010895;28;20073;-75
2022/06/25 05:11:11;;;;;;;10.65;9.65;;;;;;;;;;5008579;28;20041;-75
2022/06/25 05:13:37;;;;;;;10.40;9.40;;;;;;;;;;5012452;28;20049;-75
2022/06/25 05:16:04;;;;;;;10.93;9.63;;;;;;;;;;5011278;28;20038;-75
2022/06/25 05:18:30;;;;;;;10.77;9.73;;;;;;;;;;5011008;28;20495;-75
2022/06/25 05:20:56;;;;;;;11.02;9.93;;;;;;;;;;5008259;28;20199;-75
2022/06/25 05:23:22;;;;;;;10.88;9.88;;;;;;;;;;5007727;28;20046;-75
2022/06/25 05:25:48;;;;;;;10.45;9.40;;;;;;;;;;5012634;28;20055;-75
2022/06/25 05:28:15;;;;;;;10.70;9.68;;;;;;;;;;5009824;28;20104;-75
2022/06/25 05:30:41;;;;;;;10.57;9.48;;;;;;;;;;5008332;28;20038;-74
2022/06/25 05:33:10;;;;;;;11.50;9.07;;;;;;;;;;5009831;28;20037;-74
2022/06/25 05:35:36;;;;;;;10.43;8.13;;;;;;;;;;5006232;28;20056;-75
2022/06/25 05:38:02;;;;;;;10.18;8.18;;;;;;;;;;5009993;28;20038;-75
2022/06/25 05:40:28;;;;;;;9.18;7.47;;;;;;;;;;5009957;28;20052;-75
2022/06/25 05:42:54;;;;;;;8.75;7.28;;;;;;;;;;5009054;28;20397;-74
2022/06/25 05:45:23;;;;;;;11.45;6.75;;;;;;;;;;5006437;28;20038;-74
2022/06/25 05:47:49;;;;;;;9.10;7.45;;;;;;;;;;5006252;28;20104;-74
2022/06/25 05:50:15;;;;;;;8.82;7.15;;;;;;;;;;5008339;28;20116;-74
2022/06/25 05:52:41;;;;;;;10.13;6.78;;;;;;;;;;5004214;28;20038;-75
2022/06/25 05:55:08;;;;;;;10.82;7.20;;;;;;;;;;5008199;28;20050;-74
2022/06/25 05:57:35;;;;;;;9.95;7.15;;;;;;;;;;5006797;28;20133;-74
2022/06/25 06:00:01;;;;;;;8.75;6.80;;;;;;;;;;5004550;28;20045;-74
2022/06/25 06:02:27;;;;;;;8.48;6.93;;;;;;;;;;5005623;28;20176;-75
2022/06/25 06:04:54;;;;;;;6.63;6.00;;;;;;;;;;5002688;28;20050;-75
2022/06/25 06:07:20;;;;;;;8.27;6.38;;;;;;;;;;5008621;28;20899;-75
2022/06/25 06:09:46;;;;;;;8.88;6.40;;;;;;;;;;5007788;28;20089;-75
2022/06/25 06:12:12;;;;;;;8.50;6.15;;;;;;;;;;5002891;28;20092;-75
2022/06/25 06:14:38;;;;;;;8.40;5.72;;;;;;;;;;5009391;28;20042;-75
2022/06/25 06:17:04;;;;;;;7.22;4.97;;;;;;;;;;5008266;28;20038;-74
2022/06/25 06:19:30;;;;;;;7.22;5.15;;;;;;;;;;5005421;28;20761;-75
2022/06/25 06:21:56;;;;;;;7.47;4.50;;;;;;;;;;5006118;28;20056;-74
2022/06/25 06:24:22;;;;;;;5.07;4.28;;;;;;;;;;5008098;28;20053;-74
2022/06/25 06:26:49;;;;;;;6.53;4.38;;;;;;;;;;5001676;28;20057;-75
2022/06/25 06:29:15;;;;;;;7.93;4.57;;;;;;;;;;5008482;28;20096;-74
2022/06/25 06:31:41;;;;;;;7.10;4.25;;;;;;;;;;5004878;28;20065;-74
2022/06/25 06:34:07;;;;;;;5.63;4.25;;;;;;;;;;5005819;28;20034;-75
2022/06/25 06:36:33;;;;;;;8.00;4.35;;;;;;;;;;5004659;28;20046;-75
2022/06/25 06:38:59;;;;;;;6.30;4.15;;;;;;;;;;5007611;28;20053;-75
2022/06/25 06:41:25;;;;;;;5.88;4.03;;;;;;;;;;5008709;28;20060;-75
2022/06/25 06:43:51;;;;;;;6.60;3.97;;;;;;;;;;5009019;28;20042;-75
2022/06/25 06:46:17;;;;;;;5.65;3.67;;;;;;;;;;5009004;28;20056;-75
2022/06/25 06:48:43;;;;;;;6.15;3.90;;;;;;;;;;5003219;28;21274;-74
2022/06/25 06:51:09;;;;;;;6.70;3.95;;;;;;;;;;5011016;28;20046;-75
2022/06/25 06:53:35;;;;;;;6.15;3.45;;;;;;;;;;5004043;28;20046;-75
2022/06/25 06:56:01;;;;;;;5.88;3.58;;;;;;;;;;4998234;28;20050;-75
2022/06/25 06:58:28;;;;;;;5.35;3.50;;;;;;;;;;5006992;28;20074;-75
2022/06/25 07:00:54;;;;;;;5.35;3.42;;;;;;;;;;5007755;28;20067;-75
2022/06/25 07:03:20;;;;;;;6.50;3.83;;;;;;;;;;5007786;28;20042;-75
2022/06/25 07:05:46;;;;;;;5.45;3.80;;;;;;;;;;5006212;28;20073;-75
2022/06/25 07:08:12;;;;;;;6.53;3.90;;;;;;;;;;5002572;28;20115;-75
2022/06/25 07:10:38;;;;;;;6.07;3.72;;;;;;;;;;5001614;28;20065;-75
2022/06/25 07:13:04;;;;;;;6.32;4.80;;;;;;;;;;5007365;28;20120;-75
2022/06/25 07:15:30;;;;;;;9.63;6.22;;;;;;;;;;5008957;28;20469;-75
2022/06/25 07:17:56;;;;;;;5.13;4.10;;;;;;;;;;5004573;28;20060;-75
2022/06/25 07:20:22;;;;;;;5.35;4.28;;;;;;;;;;5012353;28;20456;-75
2022/06/25 07:22:48;;;;;;;5.97;4.15;;;;;;;;;;5006996;28;20054;-75
2022/06/25 07:25:17;;;;;;;6.38;4.13;;;;;;;;;;5007127;28;20088;-75
2022/06/25 07:27:44;;;;;;;5.30;4.03;;;;;;;;;;5008095;28;20484;-75
2022/06/25 07:30:11;;;;;;;9.00;4.18;;;;;;;;;;5004745;28;20046;-75
2022/06/25 07:32:37;;;;;;;5.50;4.10;;;;;;;;;;5024047;28;20486;-75
2022/06/25 07:35:04;;;;;;;7.55;4.10;;;;;;;;;;5007636;28;20046;-75
2022/06/25 07:37:30;;;;;;;4.75;4.13;;;;;;;;;;5005048;28;20042;-75
2022/06/25 07:39:56;;;;;;;6.20;4.30;;;;;;;;;;5009591;28;20124;-75
2022/06/25 07:42:22;;;;;;;5.60;4.60;;;;;;;;;;5004247;28;20070;-74
2022/06/25 07:44:48;;;;;;;5.63;5.00;;;;;;;;;;5002564;28;20084;-75
2022/06/25 07:47:14;;;;;;;5.65;4.10;;;;;;;;;;5004776;28;20073;-75
2022/06/25 07:52:44;;;;;;;5.85;4.50;;;;;;;;;;4945962;28;20078;-75
2022/06/25 07:55:10;;;;;;;7.03;4.80;;;;;;;;;;4947331;28;20047;-75
2022/06/25 07:57:36;;;;;;;8.02;5.68;;;;;;;;;;4972847;28;20096;-75
2022/06/25 08:00:04;;;;;;;8.73;5.90;;;;;;;;;;5002060;28;20073;-75
2022/06/25 08:02:30;;;;;;;10.00;5.65;;;;;;;;;;5009543;28;20081;-75
2022/06/25 08:04:56;;;;;;;8.18;5.03;;;;;;;;;;4999790;28;20084;-75
2022/06/25 08:07:22;;;;;;;7.15;5.63;;;;;;;;;;5007445;28;20073;-74
2022/06/25 08:09:48;;;;;;;7.22;4.97;;;;;;;;;;5006314;28;20127;-75
2022/06/25 08:12:14;;;;;;;6.28;5.50;;;;;;;;;;5008647;28;20060;-74
2022/06/25 08:14:43;;;;;;;10.43;7.55;;;;;;;;;;5005981;28;20057;-75
2022/06/25 08:17:09;;;;;;;9.40;6.68;;;;;;;;;;5009098;28;20050;-75
2022/06/25 08:19:35;;;;;;;6.97;6.22;;;;;;;;;;4998584;28;20055;-74
2022/06/25 08:22:01;;;;;;;9.30;5.40;;;;;;;;;;5001095;28;20099;-81
2022/06/25 08:24:27;;;;;;;6.65;5.30;;;;;;;;;;5007496;28;20080;-76
2022/06/25 08:26:53;;;;;;;6.55;5.05;;;;;;;;;;5007135;28;20045;-76
2022/06/25 08:29:19;;;;;;;7.57;4.90;;;;;;;;;;5007647;28;20079;-77
2022/06/25 08:31:45;;;;;;;7.85;5.55;;;;;;;;;;5003417;28;20128;-77
2022/06/25 08:34:11;;;;;;;7.40;4.82;;;;;;;;;;5006411;28;20050;-77
2022/06/25 08:36:37;;;;;;;6.40;5.25;;;;;;;;;;5004545;28;20042;-77
2022/06/25 08:39:03;;;;;;;5.45;4.95;;;;;;;;;;5002667;28;20045;-77
2022/06/25 08:41:30;;;;;;;5.95;5.15;;;;;;;;;;5000424;28;20500;-77
2022/06/25 08:43:56;;;;;;;6.95;5.63;;;;;;;;;;5006562;28;20075;-76
2022/06/25 08:46:22;;;;;;;6.13;4.78;;;;;;;;;;5001460;28;20041;-77
2022/06/25 08:48:50;;;;;;;6.63;5.40;;;;;;;;;;5004608;28;20454;-78
2022/06/25 08:51:19;;;;;;;6.88;5.32;;;;;;;;;;5010544;28;20100;-77
2022/06/25 08:53:45;;;;;;;6.70;5.38;;;;;;;;;;4998028;28;20136;-78
2022/06/25 08:56:13;;;;;;;5.82;5.22;;;;;;;;;;5007398;28;20057;-77
2022/06/25 08:58:43;;;;;;;6.05;5.32;;;;;;;;;;5007177;28;20081;-77
2022/06/25 09:01:09;;;;;;;5.65;5.10;;;;;;;;;;5004014;28;20517;-77
2022/06/25 09:03:35;;;;;;;7.32;5.50;;;;;;;;;;5006545;28;20517;-78
2022/06/25 09:06:15;;;;;;;8.95;6.40;;;;;;;;;;5003087;28;20512;-77
2022/06/25 09:08:44;;;;;;;10.35;6.10;;;;;;;;;;5004462;28;20123;-76
2022/06/25 09:11:11;;;;;;;7.80;6.43;;;;;;;;;;5005997;28;20045;-76
2022/06/25 09:13:37;;;;;;;8.98;5.93;;;;;;;;;;5006806;28;20052;-79
2022/06/25 09:16:03;;;;;;;6.10;5.50;;;;;;;;;;5001822;28;20525;-79
2022/06/25 09:18:32;;;;;;;5.35;4.82;;;;;;;;;;5005999;28;20065;-80
2022/06/25 09:20:58;;;;;;;4.00;2.75;;;;;;;;;;5006721;28;20411;-83
2022/06/25 09:23:25;;;;;;;3.85;1.75;;;;;;;;;;5008713;28;20045;-83
2022/06/25 09:26:20;;;;;;;10.63;2.90;;;;;;;;;;5010612;28;20042;-82
2022/06/25 09:28:46;;;;;;;11.32;2.80;;;;;;;;;;5008670;28;20501;-80
2022/06/25 09:31:12;;;;;;;10.00;3.53;;;;;;;;;;5007955;28;20045;-83
2022/06/25 09:33:43;;;;;;;11.65;3.20;;;;;;;;;;5011026;28;20386;-81
2022/06/25 09:36:13;;;;;;;5.65;2.22;;;;;;;;;;5000970;28;20068;-79
2022/06/25 09:38:49;;;;;;;5.57;1.90;;;;;;;;;;5005817;28;20046;-78
2022/06/25 09:41:15;;;;;;;2.88;2.15;;;;;;;;;;5010037;28;20048;-78
2022/06/25 09:43:47;;;;;;;6.75;2.38;;;;;;;;;;5010908;28;20065;-78
2022/06/25 09:46:13;;;;;;;11.23;2.75;;;;;;;;;;4993949;28;20046;-78
2022/06/25 09:48:41;;;;;;;8.07;2.80;;;;;;;;;;5006383;28;20115;-79
2022/06/25 09:51:12;;;;;;;8.60;2.60;;;;;;;;;;5000035;28;20048;-77
2022/06/25 09:53:50;;;;;;;7.65;3.00;;;;;;;;;;5005987;28;20077;-77
2022/06/25 09:56:17;;;;;;;4.55;2.00;;;;;;;;;;5007172;28;20050;-79
2022/06/25 09:58:44;;;;;;;7.25;2.30;;;;;;;;;;5002782;28;20045;-78
2022/06/25 10:01:10;;;;;;;7.38;2.50;;;;;;;;;;4996592;28;20193;-79
2022/06/25 10:03:37;;;;;;;4.97;2.15;;;;;;;;;;5005086;28;20053;-74
2022/06/25 10:06:04;;;;;;;4.60;2.40;;;;;;;;;;5005200;28;20042;-76
2022/06/25 10:08:30;;;;;;;5.32;2.45;;;;;;;;;;5006132;28;20049;-75
2022/06/25 10:10:57;;;;;;;5.93;2.67;;;;;;;;;;5004317;28;20501;-75
2022/06/25 10:13:24;;;;;;;5.75;2.28;;;;;;;;;;5007419;28;20565;-78
2022/06/25 10:15:52;;;;;;;5.97;2.90;;;;;;;;;;5001854;28;20469;-76
2022/06/25 10:18:18;;;;;;;6.30;2.60;;;;;;;;;;5006684;28;20049;-74
2022/06/25 10:20:46;;;;;;;8.60;2.80;;;;;;;;;;5005860;28;20081;-78
2022/06/25 10:23:13;;;;;;;8.38;3.28;;;;;;;;;;5003194;28;20401;-76
2022/06/25 10:25:39;;;;;;;7.85;3.42;;;;;;;;;;5006737;28;20057;-77
2022/06/25 10:28:13;;;;;;;6.80;2.97;;;;;;;;;;5003476;28;20042;-78
2022/06/25 10:30:42;;;;;;;9.70;3.33;;;;;;;;;;5005775;28;20132;-76
2022/06/25 10:33:08;;;;;;;6.10;2.35;;;;;;;;;;5001690;28;20053;-77
2022/06/25 10:35:36;;;;;;;8.18;2.45;;;;;;;;;;5004874;28;20049;-78
2022/06/25 10:38:03;;;;;;;9.35;2.88;;;;;;;;;;5002772;28;20045;-77
2022/06/25 10:40:30;;;;;;;8.38;3.00;;;;;;;;;;5000288;28;20128;-78
2022/06/25 10:42:59;;;;;;;8.52;3.05;;;;;;;;;;5006494;28;20042;-78
2022/06/25 10:45:26;;;;;;;9.93;3.40;;;;;;;;;;5008925;28;20049;-78
2022/06/25 10:47:59;;;;;;;8.38;2.78;;;;;;;;;;5009350;28;20115;-76
2022/06/25 10:50:25;;;;;;;;;;;;;;;;;;5005813;28;20046;-78
2022/06/25 10:53:03;;;;;;;8.52;2.72;;;;;;;;;;5002310;28;20380;-78
2022/06/25 10:55:30;;;;;;;7.53;2.80;;;;;;;;;;5000123;28;20045;-80
2022/06/25 10:58:15;;;;;;;11.75;4.80;;;;;;;;;;5004436;28;20103;-79
2022/06/25 11:00:58;;;;;;;8.05;3.30;;;;;;;;;;5002341;28;20071;-77
2022/06/25 11:03:24;;;;;;;7.78;3.05;;;;;;;;;;5004834;28;21723;-77
2022/06/25 11:05:50;;;;;;;7.85;2.78;;;;;;;;;;5002310;28;20060;-77
2022/06/25 11:08:16;;;;;;;5.85;2.92;;;;;;;;;;5006401;28;20072;-77
2022/06/25 11:10:42;;;;;;;7.63;2.95;;;;;;;;;;5000293;28;20441;-77
2022/06/25 11:13:11;;;;;;;5.38;2.42;;;;;;;;;;5006537;28;20347;-77
2022/06/25 11:15:39;;;;;;;4.50;2.40;;;;;;;;;;5005562;28;20111;-78
2022/06/25 11:18:08;;;;;;;5.45;2.40;;;;;;;;;;5007155;28;20476;-77
2022/06/25 11:20:35;;;;;;;7.60;2.17;;;;;;;;;;5004496;28;20058;-77
2022/06/25 11:23:02;;;;;;;5.05;1.85;;;;;;;;;;5003820;28;20543;-77
2022/06/25 11:28:48;;;;;;;4.72;2.22;;;;;;;;;;5005369;28;20050;-81
2022/06/25 11:31:18;;;;;;;7.70;2.67;;;;;;;;;;5007679;28;20126;-76
2022/06/25 11:33:44;;;;;;;7.30;2.72;;;;;;;;;;5009562;28;20042;-79
2022/06/25 11:36:11;;;;;;;7.93;2.85;;;;;;;;;;5002223;28;20172;-75
2022/06/25 11:38:37;;;;;;;8.05;2.65;;;;;;;;;;5001749;28;20044;-78
2022/06/25 11:41:04;;;;;;;5.75;2.28;;;;;;;;;;5003709;28;20085;-77
2022/06/25 11:43:30;;;;;;;7.18;2.67;;;;;;;;;;5009021;28;20486;-76
2022/06/25 11:45:57;;;;;;;6.65;3.22;;;;;;;;;;5009644;28;20045;-76
2022/06/25 11:48:26;;;;;;;6.20;2.53;;;;;;;;;;5009726;28;20089;-75
2022/06/25 11:51:10;;;;;;;7.22;2.83;;;;;;;;;;5008149;28;20412;-76
2022/06/25 11:53:38;;;;;;;5.75;2.20;;;;;;;;;;5008561;28;20069;-75
2022/06/25 11:56:05;;;;;;;5.82;2.40;;;;;;;;;;5007889;28;20045;-75
2022/06/25 11:58:32;;;;;;;8.77;2.53;;;;;;;;;;5008181;28;20038;-75
2022/06/25 12:00:59;;;;;;;6.35;2.70;;;;;;;;;;5009624;28;20041;-76
2022/06/25 12:03:26;;;;;;;5.93;2.20;;;;;;;;;;5006863;28;20096;-76
2022/06/25 12:05:53;;;;;;;8.88;3.20;;;;;;;;;;5008512;28;20392;-76
2022/06/25 12:08:20;;;;;;;6.22;2.60;;;;;;;;;;5009649;28;20041;-76
2022/06/25 12:10:48;;;;;;;9.63;2.85;;;;;;;;;;5007675;28;20049;-75
2022/06/25 12:13:15;;;;;;;7.10;2.67;;;;;;;;;;5002971;28;20046;-76
2022/06/25 12:15:41;;;;;;;5.97;2.67;;;;;;;;;;5005893;28;20065;-75
2022/06/25 12:18:08;;;;;;;7.68;3.20;;;;;;;;;;5008630;28;20089;-76
2022/06/25 12:20:34;;;;;;;7.60;2.70;;;;;;;;;;5008108;28;20034;-76
2022/06/25 12:23:01;;;;;;;8.15;2.88;;;;;;;;;;5008920;28;20076;-76
2022/06/25 12:25:38;;;;;;;11.15;2.78;;;;;;;;;;5007932;28;20077;-76
2022/06/25 12:28:05;;;;;;;6.00;2.50;;;;;;;;;;5008087;28;20048;-75
2022/06/25 12:30:35;;;;;;;8.30;3.10;;;;;;;;;;5009834;28;20367;-75
2022/06/25 12:33:13;;;;;;;9.32;2.78;;;;;;;;;;5008274;28;20489;-75
2022/06/25 12:35:45;;;;;;;8.75;3.03;;;;;;;;;;5007173;28;20128;-76
2022/06/25 12:38:13;;;;;;;8.02;2.90;;;;;;;;;;5007924;28;20052;-76
2022/06/25 12:40:40;;;;;;;9.75;2.95;;;;;;;;;;5009103;28;20060;-76
2022/06/25 12:43:07;;;;;;;7.45;2.72;;;;;;;;;;5008856;28;20041;-76
2022/06/25 12:45:34;;;;;;;7.65;2.58;;;;;;;;;;5002132;28;20053;-76
2022/06/25 12:48:01;;;;;;;7.10;2.45;;;;;;;;;;5007701;28;20050;-75
2022/06/25 12:50:28;;;;;;;7.07;2.70;;;;;;;;;;5008629;28;20034;-76
2022/06/25 12:52:54;;;;;;;6.95;2.40;;;;;;;;;;5010776;28;20066;-76
2022/06/25 12:55:21;;;;;;;7.45;2.65;;;;;;;;;;5012612;28;20046;-76
2022/06/25 12:57:48;;;;;;;6.28;2.60;;;;;;;;;;5013290;28;20375;-75
2022/06/25 13:00:25;;;;;;;7.50;2.60;;;;;;;;;;5011870;28;20042;-75
2022/06/25 13:02:51;;;;;;;7.55;2.38;;;;;;;;;;5010367;28;20052;-75
2022/06/25 13:05:18;;;;;;;8.32;2.63;;;;;;;;;;5012686;28;20088;-76
2022/06/25 13:07:44;;;;;;;7.90;2.75;;;;;;;;;;5009996;28;20054;-76
2022/06/25 13:10:11;;;;;;;6.03;2.60;;;;;;;;;;5011937;28;20080;-76
2022/06/25 13:12:37;;;;;;;4.93;2.20;;;;;;;;;;5011317;28;20096;-76
2022/06/25 13:15:03;;;;;;;5.25;2.30;;;;;;;;;;5007661;28;20053;-76
2022/06/25 13:17:32;;;;;;;5.00;2.00;;;;;;;;;;5011829;28;20042;-76
2022/06/25 13:19:58;;;;;;;4.82;2.22;;;;;;;;;;4992511;28;20061;-75
2022/06/25 13:22:24;;;;;;;5.93;2.00;;;;;;;;;;4990465;28;20057;-76
2022/06/25 13:24:50;;;;;;;4.22;1.80;;;;;;;;;;4991065;28;20240;-75
2022/06/25 13:27:19;;;;;;;5.40;1.90;;;;;;;;;;4992764;28;20125;-75
2022/06/25 13:29:45;;;;;;;3.85;1.60;;;;;;;;;;4983103;28;20046;-76
2022/06/25 13:32:16;;;;;;;6.28;1.90;;;;;;;;;;4991873;28;20046;-76
2022/06/25 13:34:45;;;;;;;3.33;1.70;;;;;;;;;;4991589;28;20043;-75
2022/06/25 13:37:12;;;;;;;3.65;1.88;;;;;;;;;;4987736;28;20165;-75
2022/06/25 13:39:38;;;;;;;3.47;1.60;;;;;;;;;;4991990;28;20077;-75
2022/06/25 13:42:04;;;;;;;2.50;1.58;;;;;;;;;;4985020;28;20121;-76
2022/06/25 13:44:31;;;;;;;4.15;1.70;;;;;;;;;;4992895;28;20530;-76
2022/06/25 13:46:57;;;;;;;3.22;1.70;;;;;;;;;;4989927;28;20523;-75
2022/06/25 13:49:23;;;;;;;4.63;1.75;;;;;;;;;;4989497;28;20371;-76
2022/06/25 13:51:53;;;;;;;3.28;1.70;;;;;;;;;;4993367;28;20042;-76
2022/06/25 13:54:19;;;;;;;3.60;1.70;;;;;;;;;;4992004;28;20431;-76
2022/06/25 13:56:45;;;;;;;3.58;1.80;;;;;;;;;;4985982;28;20046;-75
2022/06/25 13:59:11;;;;;;;3.63;1.77;;;;;;;;;;4992325;28;20425;-75
2022/06/25 14:01:37;;;;;;;5.32;1.90;;;;;;;;;;4990692;28;20049;-76
2022/06/25 14:04:04;;;;;;;3.42;1.67;;;;;;;;;;4991131;28;20089;-76
2022/06/25 14:06:32;;;;;;;4.97;2.10;;;;;;;;;;4990509;28;20047;-76
2022/06/25 14:08:58;;;;;;;5.47;2.00;;;;;;;;;;4991436;28;20489;-76
2022/06/25 14:11:24;;;;;;;5.93;1.92;;;;;;;;;;4990329;28;20189;-76
2022/06/25 14:13:50;;;;;;;5.75;2.20;;;;;;;;;;4992373;28;20133;-76
2022/06/25 14:16:16;;;;;;;4.30;1.90;;;;;;;;;;4982286;28;20499;-76
2022/06/25 14:18:42;;;;;;;4.82;1.90;;;;;;;;;;4992953;28;20433;-76
2022/06/25 14:21:08;;;;;;;4.90;1.75;;;;;;;;;;5009379;28;20045;-76
2022/06/25 14:23:37;;;;;;;4.65;1.95;;;;;;;;;;5010829;28;20505;-76
2022/06/25 14:26:03;;;;;;;5.28;1.90;;;;;;;;;;5008736;28;20512;-76
2022/06/25 14:28:29;;;;;;;5.60;3.17;;;;;;;;;;5008238;28;20045;-76
2022/06/25 14:30:55;;;;;;;4.30;2.22;;;;;;;;;;5008836;28;20612;-76
2022/06/25 14:33:22;;;;;;;5.60;2.40;;;;;;;;;;5009007;28;20076;-76
2022/06/25 14:44:03;;;;;;;3.80;1.77;;;;;;;;;;5006079;28;20042;-76
2022/06/25 14:46:29;;;;;;;4.97;2.00;;;;;;;;;;5001097;28;20053;-77
2022/06/25 14:48:55;;;;;;;5.10;2.08;;;;;;;;;;5010367;28;20104;-76
2022/06/25 14:51:21;;;;;;;5.57;2.13;;;;;;;;;;5009723;28;20448;-76